Time;durP1;ratioP1;P1;durP2;ratioP2;P2;SDS_P1;SDS_P2;PMS_P1;PMS_P2;Temp;Humidity;BMP_temperature;BMP_pressure;BME280_temperature;BME280_humidity;BME280_pressure;Samples;Min_cycle;Max_cycle;Signal;HPM_P1;HPM_P2
2022/02/17 00:03:53;;;;;;;0.20;0.10;;;13.60;99.90;;;;;;6713250;88;20206;-76
2022/02/17 00:13:53;;;;;;;0.40;0.10;;;13.20;99.90;;;;;;6716794;88;20190;-75
2022/02/17 00:23:54;;;;;;;0.98;0.20;;;13.10;99.90;;;;;;6706746;88;20210;-75
2022/02/17 00:33:54;;;;;;;0.60;0.10;;;12.90;99.90;;;;;;6713905;88;20208;-76
2022/02/17 00:43:55;;;;;;;0.30;0.10;;;12.80;99.90;;;;;;6719193;88;20663;-75
2022/02/17 00:53:55;;;;;;;0.85;0.20;;;12.50;99.90;;;;;;6710483;88;20197;-74
2022/02/17 01:03:56;;;;;;;0.47;0.20;;;12.70;99.90;;;;;;6709947;88;20637;-74
2022/02/17 01:13:56;;;;;;;1.45;0.43;;;12.70;99.90;;;;;;6710526;88;20422;-74
2022/02/17 01:23:57;;;;;;;1.85;0.17;;;13.00;99.90;;;;;;6710213;88;20244;-74
2022/02/17 01:33:57;;;;;;;1.73;0.40;;;13.40;99.90;;;;;;6709772;88;20188;-73
2022/02/17 01:44:02;;;;;;;4.60;1.08;;;13.50;99.90;;;;;;6712544;88;20514;-74
2022/02/17 01:54:04;;;;;;;3.55;0.85;;;13.50;99.90;;;;;;6711501;88;20259;-73
2022/02/17 02:04:05;;;;;;;3.12;0.70;;;13.40;99.90;;;;;;6710559;88;20178;-73
2022/02/17 02:14:14;;;;;;;6.07;1.05;;;13.30;99.90;;;;;;6712531;88;20256;-73
2022/02/17 02:24:14;;;;;;;5.22;1.10;;;13.20;99.90;;;;;;6712650;88;20201;-73
2022/02/17 02:34:15;;;;;;;8.33;1.87;;;12.90;99.90;;;;;;6710430;88;20316;-73
2022/02/17 02:44:15;;;;;;;9.77;2.10;;;12.70;99.90;;;;;;6710814;88;20521;-74
2022/02/17 02:54:16;;;;;;;12.20;1.77;;;12.70;99.90;;;;;;6711012;88;20193;-74
2022/02/17 03:04:17;;;;;;;8.68;1.67;;;12.70;99.90;;;;;;6710610;88;20240;-73
2022/02/17 03:14:17;;;;;;;8.85;1.77;;;12.50;99.90;;;;;;6720927;88;20283;-73
2022/02/17 03:24:18;;;;;;;13.40;2.55;;;12.50;99.90;;;;;;6712540;88;20215;-73
2022/02/17 03:34:19;;;;;;;10.93;2.30;;;12.40;99.90;;;;;;6711447;88;20185;-73
2022/02/17 03:44:20;;;;;;;10.73;1.83;;;12.20;99.90;;;;;;6711323;88;20530;-73
2022/02/17 03:54:20;;;;;;;14.18;2.60;;;12.10;99.90;;;;;;6711119;88;20181;-73
2022/02/17 04:04:21;;;;;;;12.10;2.03;;;11.90;99.90;;;;;;6711721;88;20193;-73
2022/02/17 04:14:21;;;;;;;17.30;2.47;;;11.80;99.90;;;;;;6711002;88;20198;-73
2022/02/17 04:24:22;;;;;;;15.18;2.10;;;11.70;99.90;;;;;;6710971;88;20216;-73
2022/02/17 04:34:22;;;;;;;16.40;2.40;;;11.60;99.90;;;;;;6710722;88;20197;-73
2022/02/17 04:44:23;;;;;;;17.77;3.12;;;11.50;99.90;;;;;;6711203;88;20202;-73
2022/02/17 04:54:23;;;;;;;13.73;2.40;;;11.50;99.90;;;;;;6711344;88;20710;-73
2022/02/17 05:04:24;;;;;;;17.25;2.65;;;11.50;99.90;;;;;;6714272;88;20203;-76
2022/02/17 05:14:24;;;;;;;18.67;2.70;;;11.40;99.90;;;;;;6723684;88;20344;-74
2022/02/17 05:24:25;;;;;;;17.23;2.85;;;11.40;99.90;;;;;;6713912;88;20678;-75
2022/02/17 05:34:26;;;;;;;29.25;3.25;;;11.20;99.90;;;;;;6713489;88;20299;-75
2022/02/17 05:44:26;;;;;;;25.70;3.05;;;11.00;99.90;;;;;;6713459;88;20243;-74
2022/02/17 05:54:27;;;;;;;20.45;3.12;;;11.00;99.90;;;;;;6711897;88;20200;-75
2022/02/17 06:05:08;;;;;;;20.12;3.25;;;10.90;99.90;;;;;;6671429;77;20177;-77
2022/02/17 06:15:10;;;;;;;21.45;3.53;;;10.60;99.90;;;;;;6636308;88;20230;-79
2022/02/17 06:25:11;;;;;;;20.88;3.30;;;10.60;99.90;;;;;;6637586;89;20198;-77
2022/02/17 06:35:11;;;;;;;18.60;3.83;;;10.40;99.90;;;;;;6636490;89;20239;-77
2022/02/17 06:45:13;;;;;;;24.08;3.83;;;10.50;99.90;;;;;;6663533;88;20210;-77
2022/02/17 06:55:14;;;;;;;31.60;3.70;;;10.50;99.90;;;;;;6638010;89;20212;-79
2022/02/17 07:05:14;;;;;;;18.45;2.80;;;10.50;99.90;;;;;;6638275;89;20709;-78
2022/02/17 07:15:15;;;;;;;21.05;3.17;;;10.40;99.90;;;;;;6639873;89;20201;-76
2022/02/17 07:25:15;;;;;;;26.02;3.37;;;10.40;99.90;;;;;;6635851;89;20983;-77
2022/02/17 07:35:16;;;;;;;28.80;3.60;;;10.10;99.90;;;;;;6634079;89;20833;-78
2022/02/17 07:45:17;;;;;;;22.08;3.45;;;10.30;99.90;;;;;;6633772;89;20341;-78
2022/02/17 07:55:18;;;;;;;23.50;3.55;;;10.30;99.90;;;;;;6635920;89;20673;-77
2022/02/17 08:05:18;;;;;;;24.45;3.95;;;10.20;99.90;;;;;;6635400;89;20636;-77
2022/02/17 08:15:19;;;;;;;19.33;3.75;;;10.20;99.90;;;;;;6635951;89;20786;-75
2022/02/17 08:25:20;;;;;;;17.80;3.00;;;10.30;99.90;;;;;;6632694;89;20711;-79
2022/02/17 08:35:21;;;;;;;26.10;3.58;;;10.00;99.90;;;;;;6648195;88;20220;-77
2022/02/17 08:45:22;;;;;;;17.77;3.25;;;10.60;99.90;;;;;;6635170;89;20324;-77
2022/02/17 08:55:23;;;;;;;19.37;2.80;;;11.00;99.90;;;;;;6650262;88;20706;-79
2022/02/17 09:05:24;;;;;;;21.80;3.33;;;11.40;99.90;;;;;;6631383;89;20215;-76
2022/02/17 09:15:25;;;;;;;22.70;3.08;;;11.60;99.90;;;;;;6631346;89;20283;-77
2022/02/17 09:25:26;;;;;;;26.20;3.37;;;11.80;99.90;;;;;;6631783;89;20915;-78
2022/02/17 09:35:26;;;;;;;20.13;3.87;;;11.70;99.90;;;;;;6635839;89;20210;-77
2022/02/17 09:45:28;;;;;;;24.63;3.40;;;12.10;99.90;;;;;;6632946;89;20521;-77
2022/02/17 09:55:29;;;;;;;19.67;3.25;;;12.10;99.90;;;;;;6629763;88;20362;-77
2022/02/17 10:05:30;;;;;;;22.25;3.67;;;12.40;99.90;;;;;;6634695;89;20194;-77
2022/02/17 10:15:35;;;;;;;20.08;3.17;;;12.40;99.90;;;;;;6632588;88;20197;-78
2022/02/17 10:25:36;;;;;;;18.33;3.55;;;11.80;99.90;;;;;;6648603;88;20283;-78
2022/02/17 10:35:36;;;;;;;14.60;2.80;;;12.10;99.90;;;;;;6635735;89;20213;-78
2022/02/17 10:45:42;;;;;;;10.47;2.40;;;11.80;99.90;;;;;;6640384;89;20185;-78
2022/02/17 10:56:04;;;;;;;17.25;2.62;;;13.00;98.80;;;;;;6636879;88;20499;-78
2022/02/17 11:06:06;;;;;;;13.23;2.67;;;13.00;98.70;;;;;;6637814;88;20592;-78
2022/02/17 11:16:07;;;;;;;12.60;2.30;;;13.60;98.30;;;;;;6665338;88;20741;-79
2022/02/17 11:26:30;;;;;;;11.67;2.40;;;13.20;96.90;;;;;;6632670;89;20209;-76
2022/02/17 11:36:32;;;;;;;13.05;2.67;;;12.00;97.40;;;;;;6644736;89;21073;-77
2022/02/17 11:46:53;;;;;;;12.20;2.10;;;11.90;97.90;;;;;;6632474;89;20255;-77
2022/02/17 11:56:54;;;;;;;15.25;2.40;;;12.20;97.50;;;;;;6644422;77;20352;-77
2022/02/17 12:06:59;;;;;;;18.05;2.80;;;12.40;98.10;;;;;;6711138;88;20336;-76
2022/02/17 12:17:02;;;;;;;19.15;2.37;;;11.70;99.90;;;;;;6705572;88;20313;-74
2022/02/17 12:27:04;;;;;;;13.55;2.12;;;9.00;99.90;;;;;;6703773;88;20328;-73
2022/02/17 12:37:05;;;;;;;15.23;2.35;;;8.80;99.90;;;;;;6709506;88;20193;-73
2022/02/17 12:47:08;;;;;;;12.88;1.90;;;8.80;99.90;;;;;;6717233;88;20216;-73
2022/02/17 12:57:15;;;;;;;11.85;2.08;;;8.80;99.90;;;;;;6706476;88;20214;-73
2022/02/17 13:07:16;;;;;;;10.00;1.15;;;9.00;99.90;;;;;;6702377;88;20175;-74
2022/02/17 13:17:23;;;;;;;3.93;0.80;;;8.80;99.90;;;;;;6713225;88;20185;-73
2022/02/17 13:27:32;;;;;;;5.15;0.75;;;7.50;99.90;;;;;;6717147;88;20530;-74
2022/02/17 13:37:51;;;;;;;5.57;1.15;;;8.90;99.90;;;;;;6711566;88;20252;-75
2022/02/17 13:47:52;;;;;;;4.10;0.70;;;8.50;99.90;;;;;;6710338;88;20296;-74
2022/02/17 13:57:52;;;;;;;3.17;0.70;;;10.00;99.90;;;;;;6711662;88;20350;-74
2022/02/17 14:07:53;;;;;;;9.30;1.10;;;11.70;99.90;;;;;;6708319;88;20334;-73
2022/02/17 14:17:53;;;;;;;14.00;1.70;;;11.90;99.90;;;;;;6707649;88;20185;-74
2022/02/17 14:27:54;;;;;;;14.77;2.42;;;12.20;99.90;;;;;;6704295;88;20629;-74
2022/02/17 14:37:54;;;;;;;9.02;1.83;;;12.00;99.90;;;;;;6708580;88;20228;-73
2022/02/17 14:47:56;;;;;;;13.10;2.17;;;11.90;99.90;;;;;;6714111;88;21026;-75
2022/02/17 14:57:57;;;;;;;9.55;1.80;;;11.60;99.90;;;;;;6716017;88;20233;-75
2022/02/17 15:07:58;;;;;;;11.07;1.70;;;11.70;99.90;;;;;;6707731;88;20736;-78
2022/02/17 15:17:58;;;;;;;9.20;1.65;;;11.50;99.90;;;;;;6708062;88;20583;-75
2022/02/17 15:27:59;;;;;;;11.80;1.62;;;11.20;99.90;;;;;;6708819;88;20202;-75
2022/02/17 15:37:59;;;;;;;10.10;1.20;;;10.70;99.90;;;;;;6710765;88;20179;-75
2022/02/17 15:48:02;;;;;;;5.37;0.98;;;10.70;99.90;;;;;;6714859;88;20189;-75
2022/02/17 15:58:03;;;;;;;6.35;0.93;;;10.40;99.90;;;;;;6715236;88;20206;-75
2022/02/17 16:08:04;;;;;;;5.50;1.00;;;10.30;99.90;;;;;;6710539;88;20174;-74
2022/02/17 16:18:04;;;;;;;6.50;1.35;;;10.40;99.90;;;;;;6721197;88;20319;-75
2022/02/17 16:28:05;;;;;;;8.88;1.20;;;10.20;99.90;;;;;;6719444;88;20209;-76
2022/02/17 16:38:05;;;;;;;5.32;1.20;;;10.10;99.90;;;;;;6710627;88;20363;-74
2022/02/17 16:48:06;;;;;;;9.65;1.30;;;10.00;99.90;;;;;;6704811;88;20583;-73
2022/02/17 16:58:07;;;;;;;8.25;1.58;;;9.80;99.90;;;;;;6701330;88;20759;-75
2022/02/17 17:08:08;;;;;;;11.32;1.92;;;9.70;99.90;;;;;;6708390;88;20193;-74
2022/02/17 17:18:09;;;;;;;12.23;2.03;;;9.60;99.90;;;;;;6717065;88;20692;-74
2022/02/17 17:28:09;;;;;;;15.50;1.83;;;9.50;99.90;;;;;;6706374;88;20302;-73
2022/02/17 17:38:10;;;;;;;11.88;1.50;;;9.40;99.90;;;;;;6706810;88;20198;-73
2022/02/17 17:48:12;;;;;;;11.50;1.30;;;9.40;99.90;;;;;;6711336;88;20261;-76
2022/02/17 17:58:15;;;;;;;7.55;1.40;;;9.30;99.90;;;;;;6707930;88;20327;-75
2022/02/17 18:08:16;;;;;;;7.70;1.35;;;9.20;99.90;;;;;;6707816;88;20340;-75
2022/02/17 18:18:16;;;;;;;8.33;1.77;;;9.10;99.90;;;;;;6707021;88;20190;-75
2022/02/17 18:28:18;;;;;;;8.10;1.58;;;9.10;99.90;;;;;;6704071;88;20536;-75
2022/02/17 18:38:19;;;;;;;8.20;1.50;;;9.00;99.90;;;;;;6718721;88;20198;-74
2022/02/17 18:48:20;;;;;;;10.07;1.55;;;9.20;99.90;;;;;;6703787;88;20671;-74
2022/02/17 18:58:23;;;;;;;8.50;1.37;;;9.10;99.90;;;;;;6697485;88;20321;-74
2022/02/17 19:08:30;;;;;;;9.77;1.45;;;9.00;99.90;;;;;;6709230;88;20179;-74
2022/02/17 19:18:31;;;;;;;10.43;1.40;;;9.00;99.90;;;;;;6700316;88;20213;-74
2022/02/17 19:28:31;;;;;;;10.27;1.60;;;9.00;99.90;;;;;;6710539;88;20273;-74
2022/02/17 19:38:32;;;;;;;8.98;1.92;;;9.00;99.90;;;;;;6704864;88;20229;-75
2022/02/17 19:48:32;;;;;;;13.10;1.35;;;9.20;99.90;;;;;;6703596;88;20207;-75
2022/02/17 19:58:33;;;;;;;7.27;1.30;;;9.20;99.90;;;;;;6700235;88;20198;-74
2022/02/17 20:08:34;;;;;;;4.97;1.42;;;9.20;99.90;;;;;;6698993;88;21133;-75
2022/02/17 20:18:36;;;;;;;7.10;1.05;;;9.30;99.90;;;;;;6703393;88;20205;-74
2022/02/17 20:28:37;;;;;;;8.85;0.93;;;8.80;99.90;;;;;;6704663;88;20256;-74
2022/02/17 20:38:37;;;;;;;8.15;0.93;;;7.80;99.90;;;;;;6706693;88;20670;-74
2022/02/17 20:59:11;;;;;;;6.05;0.90;;;7.20;99.90;;;;;;6705431;88;20640;-74
2022/02/17 21:09:13;;;;;;;9.55;1.27;;;6.80;99.90;;;;;;6701057;88;20199;-75
2022/02/17 21:19:14;;;;;;;7.18;1.10;;;6.50;99.90;;;;;;6703967;88;20633;-74
2022/02/17 21:29:14;;;;;;;8.20;1.47;;;6.60;99.90;;;;;;6703656;88;20257;-74
2022/02/17 21:39:15;;;;;;;8.07;1.30;;;6.50;99.90;;;;;;6711859;88;20515;-74
2022/02/17 21:49:15;;;;;;;6.93;1.65;;;6.50;99.90;;;;;;6708143;88;20765;-74
2022/02/17 21:59:16;;;;;;;9.75;1.50;;;6.40;99.90;;;;;;6710845;88;20386;-74
2022/02/17 22:09:17;;;;;;;10.45;1.73;;;6.50;99.90;;;;;;6705660;88;20928;-74
2022/02/17 22:19:17;;;;;;;9.60;1.40;;;6.40;99.90;;;;;;6705456;88;20225;-74
2022/02/17 22:29:18;;;;;;;8.68;1.27;;;6.30;99.90;;;;;;6703010;88;20212;-73
2022/02/17 22:39:18;;;;;;;9.38;1.65;;;6.30;99.90;;;;;;6706873;88;20183;-74
2022/02/17 22:49:19;;;;;;;9.18;1.35;;;6.30;99.90;;;;;;6712129;88;20215;-74
2022/02/17 22:59:19;;;;;;;15.07;1.45;;;6.30;99.90;;;;;;6713575;88;20328;-74
2022/02/17 23:19:59;;;;;;;11.95;2.05;;;6.80;99.90;;;;;;6687277;88;20706;-74
2022/02/17 23:29:59;;;;;;;14.27;2.20;;;6.70;99.90;;;;;;6715320;88;20190;-74
2022/02/17 23:40:04;;;;;;;11.70;2.00;;;6.80;99.90;;;;;;6710873;88;20198;-73
2022/02/17 23:50:05;;;;;;;13.90;2.20;;;6.80;99.90;;;;;;6720994;88;20186;-74
